Time;durP1;ratioP1;P1;durP2;ratioP2;P2;SDS_P1;SDS_P2;PMS_P1;PMS_P2;Temp;Humidity;BMP_temperature;BMP_pressure;BME280_temperature;BME280_humidity;BME280_pressure;Samples;Min_cycle;Max_cycle;Signal;HPM_P1;HPM_P2
2023/07/10 00:00:44;;;;;;;16.23;9.73;;;19.50;99.90;;;;;;5043058;28;20387;-81
2023/07/10 00:03:10;;;;;;;14.88;10.30;;;19.50;99.90;;;;;;5043035;28;20049;-81
2023/07/10 00:05:35;;;;;;;13.35;10.18;;;19.50;99.90;;;;;;5046528;28;20043;-81
2023/07/10 00:08:01;;;;;;;15.63;10.00;;;19.50;99.90;;;;;;5023934;28;20045;-80
2023/07/10 00:10:27;;;;;;;15.82;10.95;;;19.50;99.90;;;;;;5040902;28;20034;-80
2023/07/10 00:12:53;;;;;;;13.70;11.20;;;19.50;99.90;;;;;;5041930;28;20049;-80
2023/07/10 00:15:21;;;;;;;13.57;10.80;;;19.50;99.90;;;;;;5041494;28;20049;-77
2023/07/10 00:17:48;;;;;;;12.88;11.35;;;19.50;99.90;;;;;;5043562;28;20168;-79
2023/07/10 00:20:20;;;;;;;16.50;11.98;;;19.50;99.90;;;;;;5022523;28;20053;-79
2023/07/10 00:22:46;;;;;;;14.98;13.18;;;19.50;99.90;;;;;;5041179;28;20045;-79
2023/07/10 00:25:15;;;;;;;15.02;12.13;;;19.50;99.90;;;;;;5036666;28;20102;-76
2023/07/10 00:27:42;;;;;;;17.88;12.68;;;19.50;99.90;;;;;;5043293;28;20099;-81
2023/07/10 00:30:26;;;;;;;16.90;12.90;;;19.50;99.90;;;;;;5043840;28;20044;-81
2023/07/10 00:32:53;;;;;;;14.98;12.60;;;19.50;99.90;;;;;;5042062;28;20045;-81
2023/07/10 00:35:24;;;;;;;16.55;13.63;;;19.50;99.90;;;;;;5041839;28;20141;-81
2023/07/10 00:38:02;;;;;;;16.08;14.38;;;19.50;99.90;;;;;;5036579;28;20037;-81
2023/07/10 00:40:30;;;;;;;15.85;14.00;;;19.50;99.90;;;;;;5040262;28;20033;-80
2023/07/10 00:43:01;;;;;;;22.48;14.98;;;19.40;99.90;;;;;;5041639;28;20048;-81
2023/07/10 00:45:27;;;;;;;20.35;14.15;;;19.50;99.90;;;;;;5043090;28;20389;-81
2023/07/10 00:48:32;;;;;;;17.77;14.00;;;19.50;99.90;;;;;;5041152;28;20040;-79
2023/07/10 00:51:03;;;;;;;16.52;13.57;;;19.50;99.90;;;;;;5005016;28;20053;-81
2023/07/10 00:53:34;;;;;;;16.38;14.23;;;19.50;99.90;;;;;;5040723;28;20595;-81
2023/07/10 00:56:01;;;;;;;16.98;14.45;;;19.50;99.90;;;;;;5042216;28;20047;-82
2023/07/10 00:58:37;;;;;;;17.27;13.43;;;19.50;99.90;;;;;;5039441;28;20042;-80
2023/07/10 01:01:22;;;;;;;21.30;14.80;;;19.50;99.90;;;;;;5039657;28;20489;-80
2023/07/10 01:03:52;;;;;;;15.45;13.77;;;19.50;99.90;;;;;;5040685;28;20033;-81
2023/07/10 01:06:26;;;;;;;15.00;13.40;;;19.40;99.90;;;;;;5040926;28;20045;-80
2023/07/10 01:08:57;;;;;;;17.20;12.45;;;19.40;99.90;;;;;;5041385;28;20025;-81
2023/07/10 01:11:23;;;;;;;16.38;14.32;;;19.40;99.90;;;;;;5046672;28;20033;-81
2023/07/10 01:13:51;;;;;;;19.00;15.02;;;19.40;99.90;;;;;;5048424;28;20512;-80
2023/07/10 01:16:18;;;;;;;19.27;14.63;;;19.40;99.90;;;;;;5043786;28;20044;-78
2023/07/10 01:18:44;;;;;;;23.45;15.88;;;19.40;99.90;;;;;;5025028;28;20509;-79
2023/07/10 01:21:30;;;;;;;23.33;16.15;;;19.40;99.90;;;;;;5041979;28;20049;-81
2023/07/10 01:23:58;;;;;;;21.20;16.63;;;19.40;99.90;;;;;;5046090;28;20041;-78
2023/07/10 01:26:25;;;;;;;22.73;16.98;;;19.40;99.90;;;;;;5042158;28;20045;-81
2023/07/10 01:28:53;;;;;;;22.27;16.60;;;19.40;99.90;;;;;;5043534;28;20442;-81
2023/07/10 01:31:20;;;;;;;23.55;15.90;;;19.40;99.90;;;;;;5042252;28;20041;-81
2023/07/10 01:33:56;;;;;;;22.52;15.95;;;19.40;99.90;;;;;;5045763;28;20159;-79
2023/07/10 01:36:29;;;;;;;26.90;17.58;;;19.40;99.90;;;;;;5044919;28;20043;-76
2023/07/10 01:39:10;;;;;;;19.80;16.05;;;19.40;99.90;;;;;;5043135;28;20045;-80
2023/07/10 01:41:41;;;;;;;21.02;16.50;;;19.40;99.90;;;;;;5040071;28;20122;-80
2023/07/10 01:44:34;;;;;;;21.45;16.50;;;19.40;99.90;;;;;;5041471;28;20045;-77
2023/07/10 01:47:02;;;;;;;20.25;16.50;;;19.40;99.90;;;;;;5043507;28;20045;-81
2023/07/10 01:49:34;;;;;;;23.33;17.63;;;19.40;99.90;;;;;;5045085;28;20119;-80
2023/07/10 01:52:02;;;;;;;25.40;16.17;;;19.30;99.90;;;;;;5042918;28;20415;-80
2023/07/10 01:54:28;;;;;;;24.90;16.90;;;19.40;99.90;;;;;;5048723;28;20368;-81
2023/07/10 01:56:54;;;;;;;22.75;15.55;;;19.30;99.90;;;;;;5043244;28;20045;-81
2023/07/10 01:59:20;;;;;;;23.60;16.35;;;19.30;99.90;;;;;;5042765;28;20055;-81
2023/07/10 02:01:46;;;;;;;18.77;15.13;;;19.30;99.90;;;;;;5043901;28;20064;-81
2023/07/10 02:04:11;;;;;;;18.52;16.27;;;19.30;99.90;;;;;;5044810;28;20033;-81
2023/07/10 02:06:39;;;;;;;21.83;15.25;;;19.30;99.90;;;;;;5043010;28;20047;-78
2023/07/10 02:09:05;;;;;;;21.58;15.85;;;19.20;99.90;;;;;;5044636;28;20087;-79
2023/07/10 02:11:34;;;;;;;17.98;15.40;;;19.20;99.90;;;;;;5044755;28;20128;-81
2023/07/10 02:14:09;;;;;;;19.42;15.15;;;19.20;99.90;;;;;;5041497;28;20044;-81
2023/07/10 02:16:35;;;;;;;23.13;16.50;;;19.20;99.90;;;;;;5037859;28;20104;-81
2023/07/10 02:19:01;;;;;;;21.50;15.95;;;19.20;99.90;;;;;;5036689;28;20040;-80
2023/07/10 02:21:27;;;;;;;23.48;16.55;;;19.20;99.90;;;;;;5039336;28;20152;-81
2023/07/10 02:23:52;;;;;;;22.52;15.95;;;19.20;99.90;;;;;;5040973;28;20029;-81
2023/07/10 02:26:18;;;;;;;21.63;15.70;;;19.20;99.90;;;;;;5039829;28;20037;-81
2023/07/10 02:28:44;;;;;;;17.85;15.60;;;19.10;99.90;;;;;;5039039;28;20488;-81
2023/07/10 02:31:11;;;;;;;17.48;15.63;;;19.20;99.90;;;;;;5039684;28;20044;-81
2023/07/10 02:33:36;;;;;;;20.00;15.70;;;19.10;99.90;;;;;;5036463;28;20444;-81
2023/07/10 02:36:03;;;;;;;21.52;17.08;;;19.10;99.90;;;;;;5040445;28;20140;-78
2023/07/10 02:38:29;;;;;;;22.80;17.73;;;19.10;99.90;;;;;;5036926;28;20047;-80
2023/07/10 02:40:56;;;;;;;22.27;17.35;;;19.10;99.90;;;;;;5039964;28;20113;-81
2023/07/10 02:43:22;;;;;;;25.35;17.50;;;19.10;99.90;;;;;;5037822;28;20047;-78
2023/07/10 02:45:48;;;;;;;22.98;16.75;;;19.10;99.90;;;;;;5037348;28;20037;-81
2023/07/10 02:48:13;;;;;;;23.52;18.27;;;19.10;99.90;;;;;;5035428;28;20092;-79
2023/07/10 02:50:39;;;;;;;20.25;16.75;;;19.10;99.90;;;;;;5035518;28;20048;-80
2023/07/10 02:53:04;;;;;;;23.10;16.20;;;19.10;99.90;;;;;;5040234;28;20690;-81
2023/07/10 02:55:30;;;;;;;18.33;16.42;;;19.00;99.90;;;;;;5037495;28;20087;-78
2023/07/10 02:57:56;;;;;;;19.73;16.90;;;19.00;99.90;;;;;;5033671;28;20037;-77
2023/07/10 03:00:21;;;;;;;20.58;18.27;;;19.00;99.90;;;;;;5036569;28;20037;-77
2023/07/10 03:02:52;;;;;;;20.73;16.40;;;19.00;99.90;;;;;;5037629;28;20033;-80
2023/07/10 03:05:17;;;;;;;23.48;16.83;;;19.00;99.90;;;;;;5039422;28;20044;-77
2023/07/10 03:07:43;;;;;;;18.20;15.95;;;18.90;99.90;;;;;;5035718;28;20044;-79
2023/07/10 03:10:09;;;;;;;19.95;16.73;;;18.90;99.90;;;;;;5034056;28;20044;-81
2023/07/10 03:12:34;;;;;;;20.15;15.23;;;19.00;99.90;;;;;;5035863;28;20033;-81
2023/07/10 03:15:00;;;;;;;17.83;15.98;;;18.90;99.90;;;;;;5038092;28;20094;-81
2023/07/10 03:17:25;;;;;;;18.92;16.00;;;18.90;99.90;;;;;;5037212;28;20033;-80
2023/07/10 03:19:51;;;;;;;16.10;14.32;;;18.90;99.90;;;;;;5035177;28;22326;-81
2023/07/10 03:22:17;;;;;;;16.52;14.65;;;18.90;99.90;;;;;;5041209;28;20041;-80
2023/07/10 03:24:42;;;;;;;16.63;13.80;;;18.90;99.90;;;;;;5038935;28;20036;-79
2023/07/10 03:27:08;;;;;;;14.95;13.38;;;18.80;99.90;;;;;;5038575;28;20083;-80
2023/07/10 03:29:35;;;;;;;18.25;12.93;;;18.80;99.90;;;;;;5033583;28;20392;-81
2023/07/10 03:32:00;;;;;;;17.90;12.93;;;18.80;99.90;;;;;;5035748;28;20080;-79
2023/07/10 03:34:26;;;;;;;13.90;12.38;;;18.80;99.90;;;;;;5036695;28;20127;-81
2023/07/10 03:36:53;;;;;;;12.18;10.98;;;18.90;99.90;;;;;;5035230;28;20676;-77
2023/07/10 03:39:18;;;;;;;13.10;11.70;;;18.80;99.90;;;;;;5021868;28;20059;-77
2023/07/10 03:41:44;;;;;;;14.50;11.95;;;18.80;99.90;;;;;;5041613;28;20033;-81
2023/07/10 03:44:10;;;;;;;13.35;10.73;;;18.80;99.90;;;;;;5037944;28;20408;-81
2023/07/10 03:46:36;;;;;;;15.77;12.02;;;18.70;99.90;;;;;;5034074;28;20487;-81
2023/07/10 03:49:03;;;;;;;13.73;12.13;;;18.70;99.90;;;;;;5034980;28;20091;-81
2023/07/10 03:51:28;;;;;;;16.88;11.48;;;18.70;99.90;;;;;;5037101;28;20044;-81
2023/07/10 03:53:54;;;;;;;14.35;12.02;;;18.70;99.90;;;;;;5038525;28;20037;-81
2023/07/10 03:56:19;;;;;;;14.15;12.60;;;18.60;99.90;;;;;;5036980;28;20045;-78
2023/07/10 03:58:45;;;;;;;14.15;12.75;;;18.70;99.90;;;;;;5037390;28;20037;-81
2023/07/10 04:01:11;;;;;;;15.20;12.45;;;18.70;99.90;;;;;;5036093;28;20047;-81
2023/07/10 04:03:38;;;;;;;15.90;13.50;;;18.70;99.90;;;;;;5032588;28;20041;-80
2023/07/10 04:06:05;;;;;;;16.10;13.02;;;18.70;99.90;;;;;;5037562;28;20029;-79
2023/07/10 04:08:40;;;;;;;15.70;13.40;;;18.70;99.90;;;;;;5034424;28;21233;-81
2023/07/10 04:11:20;;;;;;;16.20;14.27;;;18.70;99.90;;;;;;5037191;28;20045;-81
2023/07/10 04:13:50;;;;;;;18.25;13.55;;;18.70;99.90;;;;;;5038468;28;20046;-79
2023/07/10 04:16:19;;;;;;;15.65;13.95;;;18.70;99.90;;;;;;5036841;28;20555;-81
2023/07/10 04:18:47;;;;;;;17.15;13.52;;;18.70;99.90;;;;;;5039741;28;20084;-80
2023/07/10 04:21:27;;;;;;;16.40;14.27;;;18.70;99.90;;;;;;5037611;28;20492;-81
2023/07/10 04:23:53;;;;;;;16.15;13.23;;;18.80;99.90;;;;;;5041062;28;20037;-81
2023/07/10 04:26:25;;;;;;;16.83;14.93;;;18.70;99.90;;;;;;5042929;28;20131;-78
2023/07/10 04:28:53;;;;;;;16.00;14.18;;;18.80;99.90;;;;;;5037292;28;20049;-79
2023/07/10 04:31:20;;;;;;;16.08;13.38;;;18.80;99.90;;;;;;5035831;28;20076;-79
2023/07/10 04:33:46;;;;;;;17.15;15.02;;;18.80;99.90;;;;;;5042276;28;20415;-79
2023/07/10 04:36:12;;;;;;;17.23;14.55;;;18.80;99.90;;;;;;5033854;28;20033;-81
2023/07/10 04:38:38;;;;;;;19.80;15.90;;;18.80;99.90;;;;;;5035118;28;20099;-79
2023/07/10 04:41:06;;;;;;;18.35;15.60;;;18.80;99.90;;;;;;5034770;28;20041;-81
2023/07/10 04:43:33;;;;;;;16.95;14.18;;;18.90;99.90;;;;;;5041362;28;20033;-79
2023/07/10 04:46:00;;;;;;;19.27;14.18;;;18.80;99.90;;;;;;5055978;28;20041;-79
2023/07/10 04:48:26;;;;;;;15.43;13.93;;;18.90;99.90;;;;;;5044728;28;20037;-80
2023/07/10 04:50:54;;;;;;;18.38;14.75;;;18.90;99.90;;;;;;5044948;28;20099;-80
2023/07/10 04:53:21;;;;;;;14.55;12.88;;;18.90;99.90;;;;;;5032731;28;20045;-77
2023/07/10 04:55:51;;;;;;;15.00;13.32;;;18.90;99.90;;;;;;5040497;28;20040;-77
2023/07/10 04:58:18;;;;;;;12.25;11.10;;;18.90;99.90;;;;;;5042225;28;20037;-79
2023/07/10 05:00:43;;;;;;;13.73;11.07;;;18.90;99.90;;;;;;5041958;28;20040;-79
2023/07/10 05:03:10;;;;;;;11.80;8.43;;;18.90;99.90;;;;;;5043388;28;20068;-79
2023/07/10 05:05:35;;;;;;;9.25;7.03;;;18.90;99.90;;;;;;5043842;28;20045;-78
2023/07/10 05:08:01;;;;;;;8.88;6.15;;;18.90;99.90;;;;;;5041372;28;20187;-79
2023/07/10 05:10:27;;;;;;;6.88;5.88;;;18.90;99.90;;;;;;5041641;28;20045;-78
2023/07/10 05:12:53;;;;;;;6.32;5.18;;;19.00;99.90;;;;;;5044966;28;20495;-79
2023/07/10 05:15:20;;;;;;;7.38;4.85;;;18.90;99.90;;;;;;5045624;28;20068;-76
2023/07/10 05:17:46;;;;;;;8.30;4.07;;;19.20;99.90;;;;;;5046224;28;20084;-77
2023/07/10 05:20:12;;;;;;;5.95;3.85;;;18.90;99.90;;;;;;5042693;28;20038;-76
2023/07/10 05:22:38;;;;;;;8.57;3.92;;;18.90;99.90;;;;;;5042165;28;20399;-79
2023/07/10 05:25:04;;;;;;;6.97;4.15;;;18.90;99.90;;;;;;5042078;28;20044;-79
2023/07/10 05:27:29;;;;;;;5.15;3.08;;;18.90;99.90;;;;;;5044430;28;20104;-79
2023/07/10 05:29:55;;;;;;;6.60;3.10;;;18.90;99.90;;;;;;5042274;28;20520;-79
2023/07/10 05:32:20;;;;;;;6.38;2.85;;;18.90;99.90;;;;;;5046902;28;20048;-80
2023/07/10 05:34:46;;;;;;;4.38;2.58;;;18.90;99.90;;;;;;5045788;28;20271;-78
2023/07/10 05:37:12;;;;;;;3.22;2.20;;;19.00;99.90;;;;;;5044530;28;20028;-80
2023/07/10 05:39:38;;;;;;;7.72;2.35;;;19.00;99.90;;;;;;5043177;28;20048;-77
2023/07/10 05:42:04;;;;;;;5.72;1.95;;;19.00;99.90;;;;;;5043895;28;20033;-79
2023/07/10 05:44:29;;;;;;;6.75;1.85;;;19.10;99.90;;;;;;5039348;28;20073;-79
2023/07/10 05:46:58;;;;;;;7.30;1.80;;;19.20;99.90;;;;;;5041813;28;20068;-77
2023/07/10 05:49:26;;;;;;;5.63;1.88;;;19.20;99.90;;;;;;5043237;28;20055;-78
2023/07/10 05:51:52;;;;;;;9.88;2.78;;;19.30;99.90;;;;;;5047646;28;20432;-79
2023/07/10 05:54:21;;;;;;;5.22;1.95;;;19.30;99.90;;;;;;5041642;28;20130;-80
2023/07/10 05:56:47;;;;;;;3.17;1.55;;;19.30;99.90;;;;;;5039458;28;20049;-79
2023/07/10 05:59:14;;;;;;;6.95;1.88;;;19.40;99.90;;;;;;5037751;28;20136;-80
2023/07/10 06:01:40;;;;;;;3.95;1.50;;;19.50;99.90;;;;;;5039559;28;20480;-78
2023/07/10 06:04:05;;;;;;;5.78;1.45;;;19.60;99.90;;;;;;5043103;28;20048;-79
2023/07/10 06:06:31;;;;;;;3.60;1.15;;;19.70;99.90;;;;;;5040252;28;20040;-79
2023/07/10 06:08:57;;;;;;;4.25;1.38;;;20.00;99.90;;;;;;5043604;28;20139;-78
2023/07/10 06:11:22;;;;;;;5.03;1.20;;;20.50;99.90;;;;;;5045185;28;20033;-81
2023/07/10 06:13:48;;;;;;;5.60;1.73;;;20.90;99.90;;;;;;5044554;28;20044;-79
2023/07/10 06:16:14;;;;;;;6.38;1.60;;;21.00;99.90;;;;;;5038287;28;20033;-81
2023/07/10 06:18:40;;;;;;;3.35;1.23;;;21.20;99.90;;;;;;5040571;28;20075;-80
2023/07/10 06:21:07;;;;;;;4.43;1.25;;;21.50;99.90;;;;;;5045516;28;20506;-80
2023/07/10 06:23:33;;;;;;;4.03;1.27;;;21.90;99.90;;;;;;5043714;28;20051;-80
2023/07/10 06:25:59;;;;;;;2.67;1.48;;;22.20;99.90;;;;;;5044768;28;20117;-79
2023/07/10 06:28:25;;;;;;;4.95;1.20;;;22.20;99.90;;;;;;5042116;28;20128;-80
2023/07/10 06:31:03;;;;;;;5.28;1.38;;;22.10;99.90;;;;;;5045466;28;20084;-78
2023/07/10 06:33:30;;;;;;;10.60;1.73;;;22.30;99.90;;;;;;5044053;28;20047;-81
2023/07/10 06:35:56;;;;;;;4.55;1.25;;;22.40;99.90;;;;;;5046812;28;20049;-81
2023/07/10 06:38:22;;;;;;;4.90;1.40;;;22.30;99.90;;;;;;5044851;28;20047;-81
2023/07/10 06:40:48;;;;;;;8.25;1.73;;;22.30;99.90;;;;;;5047205;28;20072;-81
2023/07/10 06:43:15;;;;;;;4.65;1.10;;;22.30;99.90;;;;;;5044080;28;20489;-81
2023/07/10 06:45:44;;;;;;;5.53;1.65;;;22.40;99.90;;;;;;5044765;28;20045;-82
2023/07/10 06:48:10;;;;;;;6.18;1.92;;;22.70;99.90;;;;;;5043018;28;20052;-81
2023/07/10 06:50:36;;;;;;;3.80;1.35;;;23.10;99.90;;;;;;5044896;28;20041;-80
2023/07/10 06:53:02;;;;;;;4.78;1.42;;;23.40;99.90;;;;;;5043128;28;20462;-82
2023/07/10 06:55:28;;;;;;;4.45;1.10;;;23.70;99.90;;;;;;5044631;28;20045;-81
2023/07/10 06:57:55;;;;;;;7.40;2.38;;;24.00;99.90;;;;;;5037602;28;20048;-81
2023/07/10 07:00:21;;;;;;;4.78;1.60;;;24.30;99.90;;;;;;5045863;28;20048;-80
2023/07/10 07:02:47;;;;;;;5.15;1.65;;;24.40;99.90;;;;;;5043079;28;20063;-80
2023/07/10 07:05:13;;;;;;;3.15;1.40;;;24.60;99.90;;;;;;5046078;28;20029;-80
2023/07/10 07:07:39;;;;;;;5.05;1.40;;;24.90;99.90;;;;;;5043426;28;20163;-79
2023/07/10 07:10:12;;;;;;;4.75;1.40;;;25.10;99.90;;;;;;5047725;28;20065;-81
2023/07/10 07:12:39;;;;;;;4.20;1.33;;;25.20;99.90;;;;;;5046400;28;20036;-80
2023/07/10 07:15:06;;;;;;;8.23;2.00;;;25.30;99.90;;;;;;5046618;28;20459;-81
2023/07/10 07:17:32;;;;;;;8.50;2.00;;;25.40;99.90;;;;;;5039343;28;20099;-81
2023/07/10 07:19:58;;;;;;;6.82;2.00;;;25.60;99.90;;;;;;5049220;28;20037;-81
2023/07/10 07:22:23;;;;;;;5.90;1.40;;;25.60;99.90;;;;;;5045110;28;20041;-80
2023/07/10 07:24:49;;;;;;;5.10;1.50;;;25.70;99.90;;;;;;5049050;28;20123;-81
2023/07/10 07:27:15;;;;;;;5.80;1.13;;;25.70;99.90;;;;;;5044724;28;20045;-81
2023/07/10 07:29:41;;;;;;;8.77;1.75;;;25.90;99.90;;;;;;5049456;28;20115;-81
2023/07/10 07:32:08;;;;;;;5.28;1.30;;;25.90;99.90;;;;;;5048769;28;20067;-81
2023/07/10 07:34:34;;;;;;;3.25;1.38;;;26.00;99.90;;;;;;5043401;28;20060;-79
2023/07/10 07:36:59;;;;;;;2.95;1.05;;;26.20;99.90;;;;;;5047950;28;20037;-80
2023/07/10 07:39:30;;;;;;;5.82;1.95;;;26.10;99.90;;;;;;5046704;28;20045;-80
2023/07/10 07:41:56;;;;;;;5.57;1.92;;;26.10;99.90;;;;;;5045128;28;20048;-81
2023/07/10 07:44:22;;;;;;;5.10;1.55;;;26.10;99.90;;;;;;5045095;28;20044;-80
2023/07/10 07:46:47;;;;;;;5.53;0.90;;;26.10;99.90;;;;;;5046310;28;20030;-80
2023/07/10 07:49:13;;;;;;;7.43;1.52;;;26.00;99.90;;;;;;5044777;28;20047;-81
2023/07/10 07:51:38;;;;;;;4.65;1.33;;;26.10;99.90;;;;;;5047797;28;20037;-81
2023/07/10 07:54:10;;;;;;;10.45;1.60;;;26.30;99.90;;;;;;5043030;28;20060;-81
2023/07/10 07:56:36;;;;;;;7.80;1.42;;;26.20;99.90;;;;;;5044399;28;20049;-80
2023/07/10 07:59:02;;;;;;;3.22;0.90;;;26.30;99.90;;;;;;5045929;28;20045;-81
2023/07/10 08:01:28;;;;;;;8.88;1.40;;;26.30;99.90;;;;;;5047039;28;20055;-80
2023/07/10 08:03:53;;;;;;;4.70;1.23;;;26.30;99.90;;;;;;5046732;28;20492;-81
2023/07/10 08:06:19;;;;;;;5.63;1.83;;;26.40;99.90;;;;;;5043450;28;20037;-80
2023/07/10 08:08:45;;;;;;;5.93;1.42;;;26.50;99.90;;;;;;5043343;28;20045;-81
2023/07/10 08:11:11;;;;;;;6.97;1.50;;;26.70;99.90;;;;;;5045038;28;20044;-80
2023/07/10 08:13:36;;;;;;;4.97;1.25;;;26.50;99.90;;;;;;5043616;28;20060;-80
2023/07/10 08:16:02;;;;;;;6.05;1.40;;;26.40;99.90;;;;;;5043668;28;20040;-81
2023/07/10 08:18:28;;;;;;;6.10;2.35;;;26.50;99.90;;;;;;5044853;28;20041;-80
2023/07/10 08:21:04;;;;;;;7.43;1.70;;;26.40;99.90;;;;;;5053568;28;20037;-79
2023/07/10 08:23:30;;;;;;;4.72;1.70;;;26.60;99.90;;;;;;5047139;28;20045;-80
2023/07/10 08:25:56;;;;;;;7.95;1.88;;;26.60;99.90;;;;;;5043468;28;20606;-80
2023/07/10 08:28:22;;;;;;;4.80;1.55;;;26.60;99.90;;;;;;5044042;28;20037;-80
2023/07/10 08:30:47;;;;;;;7.10;1.75;;;26.50;99.90;;;;;;5049842;28;20108;-81
2023/07/10 08:33:13;;;;;;;4.93;1.48;;;26.60;99.90;;;;;;5046267;28;20056;-81
2023/07/10 08:35:38;;;;;;;9.98;1.63;;;26.50;99.90;;;;;;5049947;28;20048;-81
2023/07/10 08:38:05;;;;;;;17.33;2.78;;;26.30;99.90;;;;;;5043286;28;20086;-80
2023/07/10 08:40:34;;;;;;;6.97;1.33;;;26.40;99.90;;;;;;5050714;28;20041;-80
2023/07/10 08:43:13;;;;;;;7.03;1.50;;;26.20;99.90;;;;;;5046549;28;20044;-81
2023/07/10 08:45:40;;;;;;;7.03;1.73;;;26.10;99.90;;;;;;5044894;28;20038;-81
2023/07/10 08:48:44;;;;;;;3.75;1.45;;;26.10;99.90;;;;;;5042216;28;20040;-80
2023/07/10 08:51:19;;;;;;;4.28;1.30;;;26.10;99.90;;;;;;5040709;28;20154;-81
2023/07/10 08:54:09;;;;;;;6.75;1.77;;;25.80;99.90;;;;;;5044665;28;20033;-81
2023/07/10 08:56:38;;;;;;;5.82;1.60;;;25.70;99.90;;;;;;5045035;28;20051;-79
2023/07/10 08:59:38;;;;;;;25.65;2.50;;;25.60;99.90;;;;;;5046975;28;20048;-81
2023/07/10 09:02:19;;;;;;;13.30;2.08;;;25.70;99.90;;;;;;5044922;28;20041;-80
2023/07/10 09:04:46;;;;;;;7.80;1.85;;;25.90;99.90;;;;;;5048723;28;20059;-81
2023/07/10 09:07:13;;;;;;;6.25;1.65;;;26.00;99.90;;;;;;5050021;28;20442;-81
2023/07/10 09:09:43;;;;;;;8.60;1.92;;;26.20;99.90;;;;;;5046883;28;20139;-81
2023/07/10 09:12:18;;;;;;;6.63;2.28;;;26.30;99.90;;;;;;5045321;28;20045;-81
2023/07/10 09:14:47;;;;;;;;;;;26.40;99.90;;;;;;5048971;28;20102;-81
2023/07/10 09:17:20;;;;;;;7.40;1.42;;;26.40;99.90;;;;;;5045419;28;20377;-81
2023/07/10 09:19:52;;;;;;;5.63;2.17;;;26.40;99.90;;;;;;5045089;28;20116;-80
2023/07/10 09:22:17;;;;;;;9.02;1.90;;;26.10;99.90;;;;;;5046100;28;20075;-81
2023/07/10 09:24:43;;;;;;;10.95;2.38;;;26.00;99.90;;;;;;5044895;28;20091;-80
2023/07/10 09:27:13;;;;;;;6.13;1.60;;;26.00;99.90;;;;;;5048201;28;20124;-81
2023/07/10 09:29:40;;;;;;;6.63;1.77;;;26.30;99.90;;;;;;5044127;28;20040;-81
2023/07/10 09:32:16;;;;;;;8.55;1.83;;;26.20;99.90;;;;;;5044778;28;20116;-81
2023/07/10 09:34:46;;;;;;;7.22;1.83;;;26.10;99.90;;;;;;5046561;28;20037;-82
2023/07/10 09:37:14;;;;;;;14.25;2.40;;;26.00;99.90;;;;;;5050116;28;20041;-81
2023/07/10 09:39:40;;;;;;;8.43;1.67;;;26.10;99.90;;;;;;5043987;28;20057;-81
2023/07/10 09:42:13;;;;;;;7.82;2.10;;;26.20;99.90;;;;;;5046508;28;20037;-80
2023/07/10 09:44:54;;;;;;;8.23;2.03;;;26.30;99.90;;;;;;5044311;28;20045;-81
2023/07/10 09:47:21;;;;;;;9.30;1.92;;;26.50;99.90;;;;;;5048597;28;20041;-81
2023/07/10 09:49:59;;;;;;;9.32;2.60;;;26.40;99.90;;;;;;5045153;28;20033;-81
2023/07/10 09:52:38;;;;;;;7.75;1.73;;;26.40;99.90;;;;;;5046138;28;20049;-80
2023/07/10 09:55:14;;;;;;;7.20;2.30;;;26.40;99.90;;;;;;5046286;28;20075;-80
2023/07/10 09:58:01;;;;;;;7.65;1.67;;;26.50;99.90;;;;;;5048406;28;20399;-81
2023/07/10 10:00:28;;;;;;;7.75;2.00;;;26.70;99.90;;;;;;5047539;28;20041;-81
2023/07/10 10:03:09;;;;;;;15.18;1.92;;;26.90;99.90;;;;;;5041813;28;20083;-81
2023/07/10 10:05:40;;;;;;;9.85;1.60;;;27.00;99.90;;;;;;5042865;28;20065;-81
2023/07/10 10:08:18;;;;;;;7.63;1.38;;;27.20;99.90;;;;;;5042648;28;20044;-81
2023/07/10 10:10:43;;;;;;;7.15;2.25;;;26.90;99.90;;;;;;5045813;28;20045;-80
2023/07/10 10:13:25;;;;;;;9.80;2.08;;;26.80;99.90;;;;;;5043873;28;20042;-80
2023/07/10 10:16:23;;;;;;;5.78;1.63;;;26.80;99.90;;;;;;5043353;28;20527;-80
2023/07/10 10:19:00;;;;;;;9.00;1.80;;;26.90;99.90;;;;;;5045187;28;20064;-81
2023/07/10 10:21:29;;;;;;;12.00;2.20;;;27.10;99.90;;;;;;5045875;28;20045;-81
2023/07/10 10:23:58;;;;;;;8.57;1.77;;;27.20;99.90;;;;;;5045511;28;20041;-81
2023/07/10 10:26:39;;;;;;;9.93;2.33;;;27.20;99.90;;;;;;5047285;28;20049;-80
2023/07/10 10:29:23;;;;;;;6.78;1.15;;;27.00;99.90;;;;;;5044985;28;20048;-81
2023/07/10 10:32:03;;;;;;;8.13;2.40;;;26.80;99.90;;;;;;5042193;28;20041;-79
2023/07/10 10:34:34;;;;;;;7.70;1.85;;;26.80;99.90;;;;;;5045268;28;20075;-80
2023/07/10 10:37:21;;;;;;;18.67;2.40;;;27.00;99.90;;;;;;5044751;28;20040;-80
2023/07/10 10:40:03;;;;;;;6.80;1.42;;;27.30;99.90;;;;;;5038719;28;20053;-80
2023/07/10 10:42:41;;;;;;;9.02;1.70;;;27.60;99.90;;;;;;5046700;28;20192;-80
2023/07/10 10:45:13;;;;;;;10.60;1.65;;;27.70;99.90;;;;;;5043900;28;20040;-79
2023/07/10 10:48:12;;;;;;;7.35;1.98;;;27.40;99.50;;;;;;5040333;28;20503;-80
2023/07/10 10:50:57;;;;;;;5.28;1.35;;;27.30;99.90;;;;;;5039443;28;20400;-81
2023/07/10 10:53:41;;;;;;;;;;;27.10;99.90;;;;;;5044197;28;20037;-80
2023/07/10 10:56:29;;;;;;;9.25;2.25;;;26.90;99.90;;;;;;5038999;28;20299;-81
2023/07/10 10:59:07;;;;;;;5.13;1.55;;;26.70;99.90;;;;;;5040118;28;20044;-81
2023/07/10 11:01:35;;;;;;;9.30;1.90;;;26.60;99.90;;;;;;5040854;28;20037;-81
2023/07/10 11:04:26;;;;;;;12.43;2.20;;;26.40;99.90;;;;;;5037666;28;20026;-80
2023/07/10 11:07:00;;;;;;;9.38;2.10;;;26.00;99.90;;;;;;5036604;28;20041;-81
2023/07/10 11:09:35;;;;;;;5.67;1.37;;;26.10;99.90;;;;;;5038396;28;20411;-83
2023/07/10 11:12:02;;;;;;;7.13;1.42;;;26.00;99.90;;;;;;5041195;28;20295;-83
2023/07/10 11:14:28;;;;;;;7.70;1.73;;;25.90;99.90;;;;;;5040579;28;20444;-83
2023/07/10 11:16:55;;;;;;;8.23;2.40;;;25.90;99.90;;;;;;5042246;28;20072;-82
2023/07/10 11:19:26;;;;;;;9.75;1.95;;;25.80;99.90;;;;;;5039990;28;20040;-81
2023/07/10 11:21:55;;;;;;;8.70;1.60;;;25.70;99.90;;;;;;5042337;28;20049;-83
2023/07/10 11:24:28;;;;;;;6.55;1.55;;;25.50;99.90;;;;;;5044514;28;20055;-83
2023/07/10 11:26:58;;;;;;;6.97;1.42;;;25.40;99.90;;;;;;5041657;28;20029;-83
2023/07/10 11:29:35;;;;;;;8.75;2.28;;;25.30;99.90;;;;;;5040859;28;20144;-82
2023/07/10 11:32:12;;;;;;;4.82;1.20;;;25.10;99.90;;;;;;5039820;28;20033;-81
2023/07/10 11:34:49;;;;;;;5.00;1.52;;;25.20;99.90;;;;;;5039846;28;20210;-83
2023/07/10 11:37:38;;;;;;;6.85;1.52;;;25.30;99.90;;;;;;5038043;28;20051;-81
2023/07/10 11:40:23;;;;;;;4.80;1.30;;;25.30;99.50;;;;;;5035149;28;20056;-83
2023/07/10 11:42:49;;;;;;;8.40;1.87;;;25.40;99.70;;;;;;5022004;28;20036;-82
2023/07/10 11:45:15;;;;;;;8.30;1.33;;;25.50;99.50;;;;;;5042690;28;20574;-84
2023/07/10 11:47:45;;;;;;;7.47;1.48;;;25.60;99.90;;;;;;5040256;28;20079;-82
2023/07/10 11:50:24;;;;;;;7.72;1.88;;;25.70;99.90;;;;;;5044261;28;20048;-83
2023/07/10 11:53:13;;;;;;;9.35;1.83;;;25.70;99.40;;;;;;5041262;28;20036;-83
2023/07/10 11:55:58;;;;;;;12.32;2.47;;;25.50;98.70;;;;;;5052670;28;20040;-81
2023/07/10 11:58:29;;;;;;;5.18;1.33;;;25.50;99.90;;;;;;5038249;28;20037;-81
2023/07/10 12:01:14;;;;;;;5.45;1.40;;;25.70;99.90;;;;;;5038072;28;20117;-81
2023/07/10 12:03:41;;;;;;;6.78;1.42;;;26.00;99.50;;;;;;5038841;28;20033;-82
2023/07/10 12:06:23;;;;;;;5.78;1.25;;;26.00;99.90;;;;;;5039495;28;20158;-83
2023/07/10 12:08:51;;;;;;;8.02;1.88;;;26.20;98.40;;;;;;5042742;28;20124;-83
2023/07/10 12:11:31;;;;;;;8.07;1.20;;;26.20;98.30;;;;;;5041814;28;20049;-83
2023/07/10 12:14:09;;;;;;;7.13;1.75;;;26.30;99.10;;;;;;5038899;28;20045;-83
2023/07/10 12:17:10;;;;;;;4.47;1.42;;;26.40;99.90;;;;;;5043375;28;20041;-81
2023/07/10 12:19:37;;;;;;;7.93;2.08;;;26.50;99.90;;;;;;5042050;28;20242;-82
2023/07/10 12:22:18;;;;;;;5.60;1.20;;;26.70;99.50;;;;;;5042064;28;20037;-83
2023/07/10 12:24:55;;;;;;;9.20;1.73;;;26.80;99.50;;;;;;5044471;28;20032;-83
2023/07/10 12:27:22;;;;;;;4.43;1.13;;;26.90;97.40;;;;;;5041355;28;20077;-82
2023/07/10 12:29:49;;;;;;;4.05;1.17;;;27.10;97.00;;;;;;5039683;28;20037;-82
2023/07/10 12:32:15;;;;;;;5.18;1.52;;;27.00;96.70;;;;;;5039571;28;20045;-81
2023/07/10 12:34:41;;;;;;;14.20;1.00;;;27.10;96.60;;;;;;5038424;28;20040;-81
2023/07/10 12:37:09;;;;;;;8.63;1.65;;;27.10;97.20;;;;;;5041412;28;20052;-83
2023/07/10 12:39:35;;;;;;;6.93;1.10;;;27.20;98.30;;;;;;5039388;28;20065;-82
2023/07/10 12:42:01;;;;;;;7.35;1.15;;;27.30;97.30;;;;;;5043898;28;20068;-82
2023/07/10 12:44:29;;;;;;;3.83;1.00;;;27.40;97.40;;;;;;5046961;28;20041;-81
2023/07/10 12:47:08;;;;;;;6.45;1.65;;;27.60;96.50;;;;;;5036553;28;20407;-82
2023/07/10 12:49:34;;;;;;;5.50;1.20;;;27.40;96.50;;;;;;5034744;28;20045;-82
2023/07/10 12:52:04;;;;;;;4.57;1.00;;;27.30;96.70;;;;;;5038672;28;20088;-82